Aérodrome :
LOGIN :

S'inscrire | Disclaimer

   EN    FR    IT 

 










Légende :    VFR   VFR Marginal   IFR   IFR Intensif   IFR Très Intensif
Visi : 
Plafond : 
>= 8 km
>= 3000ft
5 à 8 km
1000 à 3000 ft
1500m à 5 km
500 à 1000 ft
800 à 1500m
200 à 500 ft
< 800m
< 200 ft
Symboles :   Orages  Brouillard  Fortes neiges  Fortes précipitations  Vent > 20 kt
SIGMETs :   Divers  Orages  Givrage  Turbulence  Onde Orograph.  Cendres Volcan.






- Altitude de l'aérodrome : 659 ft
- Code IATA : LYN


LFLY - Lyon Bron

DERNIER METAR :
  • 071300Z AUTO VRB01KT 9999 FEW041 BKN062 13/05 Q1021 NOSIG

METARs EXPIRÉS :
  • 071230Z AUTO VRB02KT CAVOK 12/05 Q1021 NOSIG
  • 071200Z AUTO 00000KT CAVOK 12/05 Q1021 NOSIG
  • 071130Z AUTO VRB02KT 9999 FEW040 OVC064 11/05 Q1021 NOSIG
  • 071100Z AUTO VRB02KT 9999 BKN042 OVC060 09/04 Q1022 NOSIG
  • 071030Z AUTO 00000KT 9999 FEW047 OVC062 09/04 Q1022 NOSIG

TAF TAF LFLY
Valide du 07 à 12h jusqu'au 08 à 12h UTC


071100Z 0712/0812 16003KT 9999 BKN040
PROB30
TEMPO 0800/0806 3000 BR
BECMG 0807/0809 16010KT CAVOK
ATIS : +33 4 72 15 87 96



MET'MAP, la Météo Aéronautique d'un coup d'oeil ! - Copyright ORBIFLY Décembre 2007 - Disclaimer

ORBIFLY MET'MAP TEAM :

Programmation & Développement : Alexandra Zaïnal
Sur une idée originale de : Baudouin d'Aumeries
Assistance à la programmation : Marc-Olivier Méhu
Soutien technique & logistique : Manuel Goepfert

Contact : metmap@orbifly.com




SOURCES & CREDITS :

   NOAA